Latest Weather Observations for Stawell

IDV60801

Issued at 10:32 am EDT Tuesday 17 October 2017 (issued every 30 minutes, with the page automatically refreshed every 10 minutes)

About weather observations | Map of weather stations | Latest weather observations for VIC | Other Formats
Station Details ID: 079105 Name: STAWELL AERODROME Lat: -37.07 Lon: 142.74 Height: 235.36 m
Data from the previous 72 hours. | See also: Recent months at Stawell
Date/Time
EDT
Temp
°C
App
Temp
°C
Dew
Point
°C
Rel
Hum
%
Delta-T
°C
Wind Press
QNH
hPa
Press
MSL
hPa
Rain since
9am
mm
Dir  Spd
km/h
Gust
km/h
Spd
kts
Gust
kts
17/10:30am 24.5 20.8 6.3 31 9.4 NNE 15 24 8 13 1022.2 1022.1 0.0
17/10:00am 22.8 19.8 6.1 34 8.5 NNE 11 22 6 12 1022.3 1022.2 0.0
17/09:30am 21.1 18.9 7.7 42 7.0 NNE 9 15 5 8 1022.4 1022.3 0.0
17/09:00am 20.1 17.6 8.1 46 6.3 ENE 11 15 6 8 1022.3 1022.2 0.0
17/08:30am 19.2 17.0 7.9 48 5.9 ENE 9 13 5 7 1022.4 1022.3 0.0
17/08:00am 18.7 16.9 7.8 49 5.6 ESE 7 9 4 5 1022.2 1022.1 0.0
17/07:30am 17.2 15.0 7.8 54 4.8 E 9 11 5 6 1021.9 1021.8 0.0
17/07:00am 14.8 13.0 8.1 64 3.4 ESE 7 9 4 5 1021.8 1021.7 0.0
17/06:30am 12.1 10.2 7.6 74 2.2 SSE 7 9 4 5 1021.5 1021.4 0.0
17/06:00am 16.2 13.8 7.2 55 4.5 SE 9 13 5 7 1021.1 1021.0 0.0
17/05:30am 16.6 14.3 7.3 54 4.7 SE 9 11 5 6 1020.9 1020.8 0.0
17/05:00am 13.4 11.6 8.0 70 2.7 SE 7 9 4 5 1021.1 1021.0 0.0
17/04:30am 17.3 14.9 7.1 51 5.2 ESE 9 11 5 6 1020.9 1020.8 0.0
17/04:00am 17.7 15.0 7.2 50 5.3 ESE 11 15 6 8 1020.9 1020.8 0.0
17/03:30am 17.7 15.0 7.2 50 5.3 SE 11 13 6 7 1021.1 1021.0 0.0
17/03:00am 17.6 15.3 7.6 52 5.1 ESE 9 11 5 6 1021.3 1021.2 0.0
17/02:30am 17.8 15.6 7.8 52 5.1 ESE 9 13 5 7 1021.4 1021.3 0.0
17/02:00am 18.1 16.0 8.4 53 5.0 SE 9 11 5 6 1021.5 1021.4 0.0
17/01:30am 18.0 15.6 8.8 55 4.8 ESE 11 13 6 7 1021.8 1021.7 0.0
17/01:00am 18.5 16.3 9.3 55 4.9 ESE 11 13 6 7 1022.1 1022.0 0.0
17/12:30am 18.7 16.5 9.5 55 4.9 ESE 11 13 6 7 1022.3 1022.2 0.0
17/12:00am 18.6 16.4 9.4 55 4.9 ESE 11 15 6 8 1022.3 1022.2 0.0
 
Date/Time
EDT
Temp
°C
App
Temp
°C
Dew
Point
°C
Rel
Hum
%
Delta-T
°C
Wind Press
QNH
hPa
Press
MSL
hPa
Rain since
9am
mm
Dir  Spd
km/h
Gust
km/h
Spd
kts
Gust
kts
16/11:30pm 18.8 16.2 9.3 54 5.1 ESE 13 17 7 9 1022.2 1022.1 0.0
16/11:00pm 19.0 16.4 9.2 53 5.2 ESE 13 17 7 9 1022.3 1022.2 0.0
16/10:30pm 19.6 17.4 9.2 51 5.5 ESE 11 15 6 8 1022.2 1022.1 0.0
16/10:00pm 19.9 17.3 9.2 50 5.7 ESE 13 17 7 9 1022.0 1021.9 0.0
16/09:30pm 20.2 18.0 9.2 49 5.9 ESE 11 15 6 8 1021.9 1021.8 0.0
16/09:00pm 20.6 18.4 9.2 48 6.1 ESE 11 13 6 7 1021.7 1021.6 0.0
16/08:30pm 21.1 19.3 9.4 47 6.3 ESE 9 11 5 6 1021.6 1021.5 0.0
16/08:00pm 23.0 21.4 8.7 40 7.7 E 7 9 4 5 1021.3 1021.2 0.0
16/07:30pm 24.9 22.8 8.4 35 8.9 E 9 13 5 7 1021.1 1021.0 0.0
16/07:00pm 25.8 23.3 8.3 33 9.5 NE 11 15 6 8 1021.1 1021.0 0.0
16/06:30pm 26.3 23.8 8.3 32 9.8 ENE 11 19 6 10 1021.0 1020.9 0.0
16/06:00pm 26.9 23.9 7.9 30 10.3 ENE 13 20 7 11 1020.9 1020.8 0.0
16/05:30pm 26.9 23.4 7.4 29 10.5 E 15 24 8 13 1020.9 1020.8 0.0
16/05:00pm 27.2 24.4 7.1 28 10.7 ENE 11 22 6 12 1020.9 1020.8 0.0
16/04:30pm 26.9 23.1 5.8 26 11.0 NE 15 26 8 14 1021.1 1021.0 0.0
16/04:00pm 27.0 24.0 7.5 29 10.5 NE 13 20 7 11 1021.2 1021.1 0.0
16/03:30pm 27.3 24.6 7.2 28 10.8 ENE 11 22 6 12 1021.5 1021.4 0.0
16/03:00pm 26.7 24.1 7.7 30 10.2 N 11 17 6 9 1021.8 1021.7 0.0
16/02:30pm 26.2 23.5 7.3 30 10.1 NE 11 17 6 9 1022.1 1022.0 0.0
16/02:00pm 26.1 24.3 9.5 35 9.2 NNW 9 13 5 7 1022.4 1022.3 0.0
16/01:30pm 24.6 22.5 8.1 35 8.9 NNW 9 17 5 9 1022.7 1022.6 0.0
16/01:00pm 24.5 21.6 8.0 35 8.8 NNW 13 20 7 11 1023.1 1023.0 0.0
16/12:30pm 25.0 21.8 10.1 39 8.3 N 17 26 9 14 1023.5 1023.4 0.0
16/12:00pm 24.3 22.2 9.8 40 8.0 NNE 11 17 6 9 1023.9 1023.8 0.0
16/11:30am 22.9 21.6 11.3 48 6.5 NNE 9 15 5 8 1024.2 1024.2 0.0
16/11:00am 22.0 19.6 10.2 47 6.5 NE 13 19 7 10 1024.4 1024.3 0.0
16/10:30am 21.7 19.3 10.2 48 6.3 NNE 13 19 7 10 1024.7 1024.6 0.0
16/10:00am 20.8 19.3 9.1 47 6.2 NE 7 15 4 8 1024.7 1024.6 0.0
16/09:30am 19.9 19.7 10.6 55 5.1 NE 2 9 1 5 1024.6 1024.5 0.0
16/09:00am 16.8 16.3 10.6 67 3.3 SW 4 7 2 4 1024.5 1024.4 0.0
16/08:30am 13.7 12.5 10.3 80 1.8 WSW 7 9 4 5 1024.6 1024.5 0.0
16/08:00am 12.3 12.3 9.7 84 1.3 CALM 0 0 0 0 1024.2 1024.2 0.0
16/07:30am 9.9 9.7 9.1 95 0.4 CALM 0 0 0 0 1024.0 1024.0 0.0
16/07:00am 8.7 8.4 8.6 99 0.0 CALM 0 6 0 3 1023.9 1023.8 0.0
16/06:30am 7.8 7.3 7.7 99 0.0 CALM 0 0 0 0 1023.4 1023.3 0.0
16/06:00am 7.9 6.9 7.5 97 0.2 ESE 2 6 1 3 1023.1 1023.0 0.0
16/05:30am 8.7 8.0 8.4 98 0.1 SE 2 6 1 3 1022.9 1022.8 0.0
16/05:00am 8.3 6.6 7.7 96 0.3 SE 6 7 3 4 1023.0 1022.9 0.0
16/04:30am 9.5 9.3 8.9 96 0.3 CALM 0 0 0 0 1022.9 1022.8 0.0
16/04:00am 9.4 9.1 8.8 96 0.3 CALM 0 0 0 0 1023.0 1022.9 0.0
16/03:30am 9.1 8.7 8.3 95 0.4 CALM 0 0 0 0 1023.0 1022.9 0.0
16/03:00am 10.4 10.3 9.5 94 0.5 CALM 0 0 0 0 1023.0 1022.9 0.0
16/02:30am 10.0 9.8 9.2 95 0.4 CALM 0 0 0 0 1023.1 1023.0 0.0
16/02:00am 10.5 9.7 9.6 94 0.5 ESE 4 7 2 4 1023.3 1023.2 0.0
16/01:30am 10.7 10.6 9.6 93 0.6 CALM 0 0 0 0 1023.5 1023.4 0.0
16/01:00am 11.6 11.7 10.2 91 0.7 CALM 0 0 0 0 1023.5 1023.4 0.0
16/12:30am 12.0 11.3 10.2 89 0.9 SSW 4 7 2 4 1023.4 1023.3 0.0
16/12:00am 12.7 12.8 10.1 84 1.3 CALM 0 0 0 0 1023.4 1023.3 0.0
 
Date/Time
EDT
Temp
°C
App
Temp
°C
Dew
Point
°C
Rel
Hum
%
Delta-T
°C
Wind Press
QNH
hPa
Press
MSL
hPa
Rain since
9am
mm
Dir  Spd
km/h
Gust
km/h
Spd
kts
Gust
kts
15/11:30pm 13.2 13.3 10.0 81 1.7 CALM 0 0 0 0 1023.6 1023.5 0.0
15/11:00pm 13.5 11.9 10.3 81 1.7 SW 9 11 5 6 1023.4 1023.3 0.0
15/10:30pm 13.8 12.6 10.4 80 1.8 SW 7 9 4 5 1023.5 1023.4 0.0
15/10:00pm 14.9 13.7 10.3 74 2.4 SSW 7 9 4 5 1023.4 1023.3 0.0
15/09:30pm 15.7 13.6 9.8 68 3.1 SSW 11 17 6 9 1023.5 1023.4 0.0
15/09:00pm 16.4 14.7 10.0 66 3.4 SSW 9 17 5 9 1023.3 1023.2 0.0
15/08:30pm 17.0 15.4 10.1 64 3.7 SSW 9 15 5 8 1023.2 1023.1 0.0
15/08:00pm 17.8 14.5 10.9 64 3.7 SSE 19 26 10 14 1022.9 1022.8 0.0
15/07:30pm 18.9 16.1 11.2 61 4.2 SSE 17 30 9 16 1022.6 1022.5 0.0
15/07:00pm 20.2 16.8 10.6 54 5.3 SSE 19 28 10 15 1022.4 1022.3 0.0
15/06:30pm 21.2 16.9 9.4 47 6.4 S 22 28 12 15 1022.1 1022.0 0.0
15/06:00pm 21.7 18.2 8.6 43 7.0 S 17 24 9 13 1022.1 1022.0 0.0
15/05:30pm 22.4 18.9 7.0 37 8.0 SSE 15 22 8 12 1022.1 1022.0 0.0
15/05:00pm 23.1 20.2 6.4 34 8.6 ESE 11 20 6 11 1022.1 1022.0 0.0
15/04:30pm 22.5 19.6 4.5 31 9.0 S 9 20 5 11 1022.2 1022.1 0.0
15/04:00pm 22.2 19.0 5.2 33 8.5 S 11 19 6 10 1022.3 1022.2 0.0
15/03:30pm 22.4 19.8 6.2 35 8.3 SSW 9 17 5 9 1022.6 1022.5 0.0
15/03:00pm 21.8 19.0 5.3 34 8.3 SSW 9 15 5 8 1022.9 1022.8 0.0
15/02:30pm 21.2 18.9 5.6 36 7.9 S 7 15 4 8 1023.0 1022.9 0.0
15/02:00pm 20.8 17.3 3.5 32 8.3 ENE 11 17 6 9 1023.3 1023.2 0.0
15/01:30pm 20.2 16.8 2.1 30 8.5 ENE 9 17 5 9 1023.4 1023.3 0.0
15/01:00pm 19.5 16.4 3.6 35 7.6 SE 9 17 5 9 1023.7 1023.6 0.0
15/12:30pm 18.6 16.5 6.8 46 6.0 SSE 7 13 4 7 1024.0 1024.0 0.0
15/12:00pm 17.5 15.1 7.0 50 5.3 S 9 17 5 9 1024.2 1024.2 0.0
15/11:30am 17.5 15.1 4.1 41 6.4 ESE 6 11 3 6 1024.4 1024.3 0.0
15/11:00am 17.1 14.7 5.1 45 5.8 E 7 11 4 6 1024.7 1024.6 0.0
15/10:30am 15.5 13.7 7.3 58 4.1 N 6 9 3 5 1024.7 1024.6 0.0
15/10:00am 14.0 12.0 7.3 64 3.3 W 7 13 4 7 1024.9 1024.8 0.0
15/09:30am 12.9 11.2 6.0 63 3.3 S 4 7 2 4 1024.8 1024.7 0.0
15/09:00am 11.8 9.8 6.9 72 2.4 WSW 7 11 4 6 1024.8 1024.7 0.0
15/08:30am 11.0 10.4 7.5 79 1.7 CALM 0 0 0 0 1024.7 1024.6 0.0
15/08:00am 9.2 7.4 7.0 86 1.0 SW 6 7 3 4 1024.5 1024.4 0.0
15/07:30am 7.2 4.8 6.8 97 0.2 SW 9 11 5 6 1023.9 1023.8 0.0
15/07:00am 5.3 3.0 5.0 98 0.1 SW 6 9 3 5 1023.8 1023.7 0.0
15/06:30am 5.7 3.5 5.3 97 0.2 S 6 6 3 3 1023.5 1023.4 0.0
15/06:00am 6.1 3.8 5.7 97 0.2 SW 7 9 4 5 1023.4 1023.3 0.0
15/05:30am 6.6 4.4 6.2 97 0.2 SW 7 11 4 6 1023.3 1023.2 0.0
15/05:00am 6.6 4.4 6.3 98 0.1 SW 7 9 4 5 1022.9 1022.8 0.0
15/04:30am 6.5 4.3 6.4 99 0.0 SW 7 9 4 5 1022.8 1022.7 0.0
15/04:00am 6.3 3.7 6.2 99 0.0 SW 9 11 5 6 1023.0 1022.9 0.0
15/03:30am 6.4 4.2 6.3 99 0.0 WSW 7 9 4 5 1023.1 1023.0 0.0
15/03:00am 6.4 3.8 6.1 98 0.1 SW 9 11 5 6 1023.3 1023.2 0.0
15/02:30am 7.1 6.3 6.5 96 0.3 CALM 0 0 0 0 1023.6 1023.5 0.0
15/02:00am 8.0 7.3 7.1 94 0.4 CALM 0 2 0 1 1023.6 1023.5 0.0
15/01:30am 8.6 6.6 7.2 91 0.7 S 7 11 4 6 1023.9 1023.8 0.0
15/01:00am 8.7 6.1 7.6 93 0.5 SSW 11 15 6 8 1024.1 1024.1 0.0
15/12:30am 8.6 6.4 7.7 94 0.4 SW 9 13 5 7 1024.2 1024.2 0.0
15/12:00am 9.0 6.8 7.8 92 0.6 SW 9 13 5 7 1024.2 1024.2 0.0
 
Date/Time
EDT
Temp
°C
App
Temp
°C
Dew
Point
°C
Rel
Hum
%
Delta-T
°C
Wind Press
QNH
hPa
Press
MSL
hPa
Rain since
9am
mm
Dir  Spd
km/h
Gust
km/h
Spd
kts
Gust
kts
14/11:30pm 10.5 7.5 7.9 84 1.3 S 13 17 7 9 1024.2 1024.2 0.0
14/11:00pm 11.0 7.7 8.1 82 1.4 SSE 15 22 8 12 1024.2 1024.2 0.0
14/10:30pm 11.4 8.5 8.1 80 1.6 SSE 13 17 7 9 1024.5 1024.4 0.0
14/10:00pm 11.9 7.8 8.6 80 1.6 S 20 35 11 19 1024.4 1024.3 0.0
14/09:30pm 12.4 8.3 8.7 78 1.9 S 20 32 11 17 1024.2 1024.2 0.0
14/09:00pm 12.8 9.0 8.9 77 2.0 S 19 28 10 15 1024.1 1024.1 0.0
14/08:30pm 13.7 10.1 8.5 71 2.6 S 17 22 9 12 1024.1 1024.1 0.0
14/08:00pm 14.7 10.9 7.5 62 3.6 S 17 24 9 13 1023.8 1023.7 0.0
14/07:30pm 15.5 11.2 7.0 57 4.2 SSE 19 26 10 14 1023.6 1023.5 0.0
14/07:00pm 16.5 12.7 7.7 56 4.5 SSE 17 22 9 12 1023.4 1023.3 0.0
14/06:30pm 17.5 13.1 7.3 51 5.2 SSE 20 28 11 15 1023.1 1023.0 0.0
14/06:00pm 17.5 12.3 7.3 51 5.2 S 24 33 13 18 1022.9 1022.8 0.0
14/05:30pm 18.1 13.5 6.6 47 5.8 S 20 30 11 16 1022.9 1022.8 0.0
14/05:00pm 18.1 13.7 7.2 49 5.5 SSE 20 30 11 16 1022.8 1022.7 0.0
14/04:30pm 18.1 13.7 7.2 49 5.5 S 20 30 11 16 1022.8 1022.7 0.0
14/04:00pm 18.4 14.2 7.5 49 5.6 SSE 19 24 10 13 1022.9 1022.8 0.0
14/03:30pm 17.8 13.5 7.2 50 5.4 S 19 28 10 15 1023.0 1022.9 0.0
14/03:00pm 17.4 13.4 6.6 49 5.4 S 17 26 9 14 1023.4 1023.3 0.0
14/02:30pm 16.9 13.2 6.4 50 5.2 SSE 15 22 8 12 1023.7 1023.6 0.0
14/02:00pm 16.5 12.5 6.6 52 4.9 S 17 26 9 14 1023.8 1023.7 0.0
14/01:30pm 16.0 12.1 7.0 55 4.5 SSW 17 24 9 13 1024.1 1024.1 0.0
14/01:00pm 15.5 11.8 6.5 55 4.4 SSE 15 22 8 12 1024.5 1024.4 0.0
14/12:30pm 14.5 11.2 6.6 59 3.9 SSW 13 28 7 15 1025.0 1024.9 0.0
14/12:00pm 14.2 10.4 7.5 64 3.3 SSW 17 28 9 15 1025.4 1025.3 0.0
14/11:30am 13.1 9.2 6.9 66 3.0 SSW 17 24 9 13 1025.7 1025.6 0.0
14/11:00am 12.5 9.4 7.2 70 2.6 SSE 13 20 7 11 1025.9 1025.8 0.0

Other Formats:

Comma delimited format used in spreadsheet applications
http://www.bom.gov.au/fwo/IDV60801/IDV60801.94836.axf

JavaScript Object Notation format (JSON) in row-major order
http://www.bom.gov.au/fwo/IDV60801/IDV60801.94836.json